Time;durP1;ratioP1;P1;durP2;ratioP2;P2;SDS_P1;SDS_P2;PMS_P1;PMS_P2;Temp;Humidity;BMP_temperature;BMP_pressure;BME280_temperature;BME280_humidity;BME280_pressure;Samples;Min_cycle;Max_cycle;Signal;HPM_P1;HPM_P2
2022/01/16 00:04:09;;;;;;;48.97;20.65;;;3.20;99.90;;;;;;5090270;28;20618;-84
2022/01/16 00:06:46;;;;;;;52.15;22.20;;;4.90;99.90;;;;;;5089170;28;20066;-84
2022/01/16 00:09:12;;;;;;;49.90;22.17;;;3.10;99.90;;;;;;5106598;28;20132;-83
2022/01/16 00:11:38;;;;;;;51.55;22.50;;;3.00;99.90;;;;;;5104546;28;20108;-83
2022/01/16 00:14:05;;;;;;;53.70;22.23;;;3.00;99.90;;;;;;5105941;28;20059;-84
2022/01/16 00:16:31;;;;;;;51.10;21.90;;;4.10;99.90;;;;;;5068457;28;20064;-84
2022/01/16 00:18:58;;;;;;;48.42;21.70;;;4.00;99.90;;;;;;5070206;28;20069;-83
2022/01/16 00:21:30;;;;;;;49.17;21.77;;;3.10;99.90;;;;;;5089349;28;20115;-84
2022/01/16 00:23:56;;;;;;;46.15;20.90;;;2.80;99.90;;;;;;5088606;28;20538;-84
2022/01/16 00:26:23;;;;;;;53.35;22.13;;;3.20;99.90;;;;;;5074989;28;20325;-83
2022/01/16 00:28:50;;;;;;;53.25;22.17;;;2.80;99.90;;;;;;5093060;28;20036;-84
2022/01/16 00:31:18;;;;;;;49.17;21.58;;;2.70;99.90;;;;;;5105027;28;20131;-83
2022/01/16 00:33:44;;;;;;;55.30;22.08;;;4.30;99.90;;;;;;5108033;28;20100;-83
2022/01/16 00:36:14;;;;;;;52.67;22.65;;;4.30;99.90;;;;;;5074965;28;20032;-83
2022/01/16 00:38:43;;;;;;;51.20;21.73;;;2.70;99.90;;;;;;5075657;28;20028;-83
2022/01/16 00:41:08;;;;;;;49.10;20.92;;;2.70;99.90;;;;;;5073503;28;20036;-84
2022/01/16 00:43:35;;;;;;;49.78;21.90;;;4.40;99.90;;;;;;5109620;28;20488;-83
2022/01/16 00:46:01;;;;;;;47.13;20.85;;;3.90;99.90;;;;;;5092735;28;20069;-84
2022/01/16 00:48:27;;;;;;;52.38;22.02;;;2.60;99.90;;;;;;5093352;28;20564;-84
2022/01/16 00:50:52;;;;;;;47.55;19.85;;;3.40;99.90;;;;;;5109800;28;20062;-84
2022/01/16 00:53:18;;;;;;;45.03;20.38;;;3.50;99.90;;;;;;5092931;28;20114;-84
2022/01/16 00:55:44;;;;;;;40.15;19.17;;;2.60;99.90;;;;;;5073945;28;20510;-83
2022/01/16 00:58:10;;;;;;;41.20;19.67;;;4.30;99.90;;;;;;5091419;28;20154;-83
2022/01/16 01:00:36;;;;;;;45.55;19.55;;;2.50;99.90;;;;;;5092380;28;20042;-83
2022/01/16 01:03:05;;;;;;;49.10;20.85;;;2.50;99.90;;;;;;5090868;28;20400;-83
2022/01/16 01:05:32;;;;;;;42.22;19.05;;;4.30;99.90;;;;;;5107667;28;20496;-84
2022/01/16 01:07:58;;;;;;;46.38;20.25;;;2.50;99.90;;;;;;5092363;28;20035;-84
2022/01/16 01:10:36;;;;;;;48.38;20.80;;;2.50;99.90;;;;;;5091746;28;20097;-84
2022/01/16 01:13:10;;;;;;;42.50;19.70;;;2.50;99.90;;;;;;5108667;27;20111;-83
2022/01/16 01:15:44;;;;;;;43.22;19.73;;;4.40;99.90;;;;;;5095853;27;20063;-84
2022/01/16 01:18:10;;;;;;;43.33;20.20;;;3.10;99.90;;;;;;5092997;27;20028;-84
2022/01/16 01:20:39;;;;;;;42.30;19.58;;;2.50;99.90;;;;;;5093319;27;20087;-83
2022/01/16 01:23:06;;;;;;;46.47;21.30;;;2.40;99.90;;;;;;5112473;27;20079;-84
2022/01/16 01:25:31;;;;;;;47.25;21.38;;;2.30;99.90;;;;;;5095105;27;20049;-83
2022/01/16 01:27:57;;;;;;;48.47;22.48;;;2.40;99.90;;;;;;5072393;27;20137;-84
2022/01/16 01:30:24;;;;;;;50.67;22.63;;;2.40;99.90;;;;;;5077968;27;20054;-84
2022/01/16 01:32:51;;;;;;;48.42;22.05;;;2.40;99.90;;;;;;5095158;27;20039;-84
2022/01/16 01:35:20;;;;;;;50.60;22.88;;;2.30;99.90;;;;;;5075000;27;20031;-84
2022/01/16 01:37:47;;;;;;;53.00;23.50;;;2.30;99.90;;;;;;5111093;27;20110;-84
2022/01/16 01:40:20;;;;;;;49.05;22.65;;;3.80;99.90;;;;;;5095795;27;20114;-84
2022/01/16 01:43:01;;;;;;;52.22;22.63;;;2.30;99.90;;;;;;5111589;27;20067;-84
2022/01/16 01:51:20;;;;;;;54.40;24.52;;;3.90;99.90;;;;;;5111798;27;20093;-83
2022/01/16 01:53:46;;;;;;;58.22;25.65;;;2.20;99.90;;;;;;5077098;27;20039;-83
2022/01/16 01:56:17;;;;;;;63.47;25.73;;;2.20;99.90;;;;;;5095127;27;20035;-83
2022/01/16 01:58:44;;;;;;;58.22;24.33;;;2.20;99.90;;;;;;5094411;27;20728;-84
2022/01/16 02:01:10;;;;;;;55.40;25.52;;;3.20;99.90;;;;;;5109676;27;20143;-84
2022/01/16 02:06:11;;;;;;;56.75;26.13;;;2.90;99.90;;;;;;5078316;27;20127;-84
2022/01/16 02:08:37;;;;;;;64.88;26.27;;;2.20;99.90;;;;;;5111548;27;20062;-84
2022/01/16 02:11:03;;;;;;;61.90;25.98;;;2.20;99.90;;;;;;5094438;27;20031;-84
2022/01/16 02:13:34;;;;;;;66.13;27.90;;;3.70;99.90;;;;;;5094313;27;20050;-83
2022/01/16 02:32:46;;;;;;;66.55;26.63;;;3.70;99.90;;;;;;5110552;27;20037;-83
2022/01/16 02:35:12;;;;;;;64.53;26.38;;;2.30;99.90;;;;;;5084396;27;20039;-84
2022/01/16 02:37:38;;;;;;;58.95;25.05;;;2.30;99.90;;;;;;5067638;27;20400;-83
2022/01/16 02:40:14;;;;;;;61.25;25.38;;;3.90;99.90;;;;;;5109125;27;20108;-83
2022/01/16 02:42:44;;;;;;;65.75;26.33;;;2.30;99.90;;;;;;5110838;27;20092;-83
2022/01/16 02:45:16;;;;;;;60.78;25.67;;;0.40;99.90;;;;;;5068825;27;20047;-83
2022/01/16 02:47:42;;;;;;;63.72;26.20;;;2.40;99.90;;;;;;5093832;27;20031;-83
2022/01/16 02:50:08;;;;;;;61.15;24.92;;;2.30;99.90;;;;;;5110501;27;20402;-83
2022/01/16 02:52:34;;;;;;;61.63;25.48;;;2.30;99.90;;;;;;5110793;27;20448;-84
2022/01/16 02:55:01;;;;;;;65.30;26.30;;;3.80;99.90;;;;;;5110261;27;20084;-83
2022/01/16 02:57:27;;;;;;;59.25;23.77;;;2.30;99.90;;;;;;5070088;27;20035;-84
2022/01/16 02:59:55;;;;;;;66.65;26.05;;;2.30;99.90;;;;;;5056761;27;20465;-83
2022/01/16 03:02:24;;;;;;;76.15;28.80;;;3.80;99.90;;;;;;5093385;27;20027;-83
2022/01/16 03:04:50;;;;;;;61.78;27.27;;;3.60;99.90;;;;;;5107773;27;20050;-83
2022/01/16 03:07:16;;;;;;;68.60;27.20;;;2.30;99.90;;;;;;5093527;27;20115;-83
2022/01/16 03:10:05;;;;;;;70.13;27.58;;;2.30;99.90;;;;;;5075925;27;20497;-84
2022/01/16 03:12:30;;;;;;;69.57;26.85;;;2.30;99.90;;;;;;5110039;27;20035;-84
2022/01/16 03:14:56;;;;;;;65.28;26.23;;;3.50;99.90;;;;;;5073379;27;20058;-84
2022/01/16 03:17:35;;;;;;;68.15;27.67;;;3.70;99.90;;;;;;5076200;27;20046;-84
2022/01/16 03:22:46;;;;;;;66.53;26.50;;;2.30;99.90;;;;;;5095913;28;20506;-84
2022/01/16 03:25:12;;;;;;;68.18;26.77;;;3.70;99.90;;;;;;5109697;28;20031;-84
2022/01/16 03:27:38;;;;;;;61.38;25.70;;;3.60;99.90;;;;;;5075936;28;20441;-84
2022/01/16 03:30:04;;;;;;;66.40;25.50;;;2.40;99.90;;;;;;5076745;28;20047;-84
2022/01/16 03:32:30;;;;;;;65.82;27.08;;;2.40;99.90;;;;;;5109879;28;20091;-84
2022/01/16 03:34:56;;;;;;;79.10;30.40;;;2.30;99.90;;;;;;5092820;28;20445;-84
2022/01/16 03:37:21;;;;;;;75.45;29.90;;;2.40;99.90;;;;;;5092924;28;20165;-84
2022/01/16 03:39:47;;;;;;;91.22;29.98;;;2.40;99.90;;;;;;5110030;28;20040;-84
2022/01/16 03:42:13;;;;;;;79.55;29.00;;;2.40;99.90;;;;;;5067651;28;20050;-84
2022/01/16 03:44:39;;;;;;;78.63;28.90;;;3.40;99.90;;;;;;5108837;28;20031;-84
2022/01/16 03:47:05;;;;;;;76.68;28.75;;;2.40;99.90;;;;;;5073363;28;20499;-84
2022/01/16 03:49:32;;;;;;;77.32;29.42;;;2.40;99.90;;;;;;5109368;28;20081;-84
2022/01/16 03:51:59;;;;;;;80.28;29.40;;;3.40;99.90;;;;;;5092504;28;20099;-84
2022/01/16 03:54:28;;;;;;;82.25;30.27;;;2.40;99.90;;;;;;5065441;28;20032;-84
2022/01/16 03:56:55;;;;;;;76.95;28.58;;;3.10;99.90;;;;;;5092024;28;20050;-83
2022/01/16 03:59:21;;;;;;;81.47;30.13;;;2.50;99.90;;;;;;5110250;27;20034;-84
2022/01/16 04:01:47;;;;;;;81.63;29.63;;;3.50;99.90;;;;;;5071818;27;20028;-84
2022/01/16 04:04:13;;;;;;;72.75;29.10;;;2.50;99.90;;;;;;5095535;27;20039;-84
2022/01/16 04:06:39;;;;;;;84.47;31.55;;;2.40;99.90;;;;;;5108982;27;20035;-84
2022/01/16 04:09:04;;;;;;;80.05;30.30;;;2.50;99.90;;;;;;5066704;27;20443;-84
2022/01/16 04:11:31;;;;;;;80.55;29.23;;;2.50;99.90;;;;;;5113180;27;20083;-84
2022/01/16 04:14:09;;;;;;;78.53;29.90;;;2.50;99.90;;;;;;5093196;28;20424;-84
2022/01/16 04:16:37;;;;;;;82.22;30.27;;;2.50;99.90;;;;;;5091601;28;20048;-83
2022/01/16 04:19:04;;;;;;;79.80;29.90;;;2.50;99.90;;;;;;5092157;28;20043;-84
2022/01/16 04:21:30;;;;;;;78.75;29.73;;;2.50;99.90;;;;;;5092784;28;20050;-84
2022/01/16 04:23:57;;;;;;;88.82;30.77;;;3.70;99.90;;;;;;5108495;28;20051;-84
2022/01/16 04:26:26;;;;;;;88.72;29.92;;;2.20;99.90;;;;;;5110288;28;20054;-84
2022/01/16 04:28:55;;;;;;;79.32;29.17;;;2.60;99.90;;;;;;5075693;28;20137;-83
2022/01/16 04:31:22;;;;;;;80.80;29.98;;;2.60;99.90;;;;;;5109812;28;20032;-84
2022/01/16 04:33:48;;;;;;;91.47;31.45;;;2.60;99.90;;;;;;5093236;28;20063;-84
2022/01/16 04:36:13;;;;;;;85.18;29.50;;;4.30;99.90;;;;;;5109267;28;20585;-84
2022/01/16 04:38:46;;;;;;;92.25;31.05;;;2.60;99.90;;;;;;5092653;28;20058;-84
2022/01/16 04:43:57;;;;;;;86.72;30.35;;;3.60;99.90;;;;;;5104680;28;20618;-84
2022/01/16 04:46:25;;;;;;;84.13;29.63;;;3.20;99.90;;;;;;5092604;28;20050;-84
2022/01/16 04:48:52;;;;;;;91.25;30.95;;;3.60;99.90;;;;;;5075103;28;20035;-84
2022/01/16 04:51:19;;;;;;;91.55;31.35;;;2.70;99.90;;;;;;5090296;28;20276;-84
2022/01/16 04:53:45;;;;;;;98.60;32.20;;;4.50;99.90;;;;;;5072218;28;20381;-84
2022/01/16 04:56:11;;;;;;;98.28;31.52;;;2.80;99.90;;;;;;5074594;28;20056;-84
2022/01/16 04:58:39;;;;;;;98.55;31.55;;;4.60;99.90;;;;;;5087604;28;20027;-84
2022/01/16 05:01:06;;;;;;;93.88;31.30;;;2.80;99.90;;;;;;5091412;28;20526;-84
2022/01/16 05:03:33;;;;;;;108.60;31.52;;;2.80;99.90;;;;;;5107391;28;20044;-84
2022/01/16 05:05:59;;;;;;;97.90;31.15;;;3.80;99.90;;;;;;5087669;28;20427;-83
2022/01/16 05:08:26;;;;;;;97.10;32.25;;;2.80;99.90;;;;;;5090517;28;20122;-84
2022/01/16 05:10:54;;;;;;;94.38;32.90;;;2.80;99.90;;;;;;5074228;28;20067;-84
2022/01/16 05:18:39;;;;;;;99.72;31.63;;;2.90;99.90;;;;;;5112205;27;20032;-84
2022/01/16 05:21:07;;;;;;;98.93;30.60;;;3.30;99.90;;;;;;5077873;27;20047;-84
2022/01/16 05:23:33;;;;;;;102.35;31.88;;;2.90;99.90;;;;;;5095064;27;20176;-84
2022/01/16 05:26:00;;;;;;;106.80;32.72;;;3.10;99.90;;;;;;5093372;27;20031;-84
2022/01/16 05:28:26;;;;;;;100.13;32.10;;;3.00;99.90;;;;;;5070206;27;20121;-83
2022/01/16 05:30:52;;;;;;;99.75;32.70;;;3.90;99.90;;;;;;5076838;27;20043;-84
2022/01/16 05:33:18;;;;;;;109.47;33.00;;;3.00;99.90;;;;;;5112158;27;20027;-84
2022/01/16 05:35:44;;;;;;;102.55;32.15;;;3.00;99.90;;;;;;5095136;27;20118;-84
2022/01/16 05:38:10;;;;;;;102.35;30.65;;;4.60;99.90;;;;;;5095055;27;20377;-84
2022/01/16 05:40:36;;;;;;;101.47;32.33;;;4.20;99.90;;;;;;5072309;27;20035;-84
2022/01/16 05:43:02;;;;;;;96.28;31.50;;;3.70;99.90;;;;;;5095523;27;20461;-84
2022/01/16 05:45:29;;;;;;;96.30;31.92;;;3.10;99.90;;;;;;5094731;27;20039;-83
2022/01/16 05:47:55;;;;;;;133.07;35.92;;;3.10;99.90;;;;;;5093509;27;20114;-83
2022/01/16 05:50:21;;;;;;;95.45;31.17;;;3.70;99.90;;;;;;5094956;27;20039;-84
2022/01/16 05:52:47;;;;;;;96.80;30.13;;;4.60;99.90;;;;;;5094386;27;20050;-84
2022/01/16 05:55:14;;;;;;;101.30;32.83;;;3.10;99.90;;;;;;5078004;27;20031;-84
2022/01/16 05:57:40;;;;;;;111.70;33.28;;;3.20;99.90;;;;;;5111459;27;20087;-84
2022/01/16 06:00:08;;;;;;;110.88;33.33;;;3.70;99.90;;;;;;5111214;27;20054;-84
2022/01/16 06:02:34;;;;;;;116.40;34.50;;;3.20;99.90;;;;;;5110941;27;20096;-84
2022/01/16 06:05:00;;;;;;;110.15;32.72;;;3.20;99.90;;;;;;5093108;27;20035;-84
2022/01/16 06:07:26;;;;;;;112.57;32.55;;;3.20;99.90;;;;;;5092880;27;20556;-84
2022/01/16 06:09:54;;;;;;;106.43;32.25;;;3.20;99.90;;;;;;5093802;27;20038;-84
2022/01/16 06:12:20;;;;;;;115.53;32.50;;;3.20;99.90;;;;;;5094047;27;20061;-84
2022/01/16 06:14:46;;;;;;;119.72;33.65;;;3.20;99.90;;;;;;5075492;27;20149;-84
2022/01/16 06:17:12;;;;;;;109.78;33.70;;;3.30;99.90;;;;;;5067906;27;20031;-84
2022/01/16 06:19:38;;;;;;;115.65;33.13;;;3.30;99.90;;;;;;5074184;27;20084;-84
2022/01/16 06:22:04;;;;;;;111.38;33.55;;;5.00;99.90;;;;;;5110979;27;20035;-84
2022/01/16 06:24:30;;;;;;;114.20;34.15;;;;;;;;;;5091732;27;20043;-84
2022/01/16 06:26:56;;;;;;;116.85;32.85;;;3.30;99.90;;;;;;5094469;27;20038;-84
2022/01/16 06:29:22;;;;;;;108.35;33.42;;;3.30;99.90;;;;;;5076785;27;20407;-84
2022/01/16 06:31:48;;;;;;;120.43;33.95;;;5.00;99.90;;;;;;5092987;27;20031;-84
2022/01/16 06:34:14;;;;;;;106.82;33.97;;;3.30;99.90;;;;;;5093580;27;20489;-84
2022/01/16 06:36:40;;;;;;;110.90;33.53;;;4.20;99.90;;;;;;5093754;27;20035;-84
2022/01/16 06:39:09;;;;;;;132.82;35.03;;;3.40;99.90;;;;;;5093476;27;20095;-84
2022/01/16 06:41:35;;;;;;;127.32;33.80;;;3.40;99.90;;;;;;5110348;27;20038;-84
2022/01/16 06:44:01;;;;;;;121.65;35.67;;;4.70;99.90;;;;;;5093021;27;20058;-84
2022/01/16 06:46:27;;;;;;;125.80;36.63;;;3.40;99.90;;;;;;5092319;27;20035;-84
2022/01/16 06:48:53;;;;;;;110.20;34.13;;;4.60;99.90;;;;;;5111271;27;20099;-84
2022/01/16 06:51:20;;;;;;;112.10;35.35;;;3.50;99.90;;;;;;5093674;27;20491;-84
2022/01/16 06:53:47;;;;;;;119.55;35.70;;;3.50;99.90;;;;;;5094083;27;20115;-84
2022/01/16 06:56:14;;;;;;;123.38;37.55;;;4.30;99.90;;;;;;5093410;27;20488;-84
2022/01/16 06:58:40;;;;;;;124.63;35.55;;;4.70;99.90;;;;;;5110917;27;20106;-84
2022/01/16 07:01:06;;;;;;;121.28;37.03;;;3.60;99.90;;;;;;5107288;27;20542;-84
2022/01/16 07:03:32;;;;;;;125.00;36.67;;;3.60;99.90;;;;;;5060168;27;20035;-84
2022/01/16 07:05:59;;;;;;;123.35;36.38;;;4.80;99.90;;;;;;5093464;27;20510;-84
2022/01/16 07:08:26;;;;;;;126.80;37.67;;;3.60;99.90;;;;;;5107469;27;20054;-84
2022/01/16 07:10:54;;;;;;;105.47;34.70;;;3.80;99.90;;;;;;5075989;27;20500;-84
2022/01/16 07:13:21;;;;;;;121.97;36.90;;;3.60;99.90;;;;;;5092912;27;20030;-84
2022/01/16 07:15:48;;;;;;;121.55;36.67;;;5.00;99.90;;;;;;5076967;27;20043;-84
2022/01/16 07:18:13;;;;;;;119.03;36.47;;;3.70;99.90;;;;;;5093637;27;20039;-84
2022/01/16 07:20:39;;;;;;;126.25;36.97;;;3.70;99.90;;;;;;5092963;28;20050;-84
2022/01/16 07:23:06;;;;;;;118.05;36.95;;;4.60;99.90;;;;;;5076037;27;20035;-84
2022/01/16 07:25:31;;;;;;;118.07;37.50;;;3.80;99.90;;;;;;5109456;27;20078;-84
2022/01/16 07:27:57;;;;;;;110.38;37.63;;;3.80;99.90;;;;;;5074646;27;21335;-84
2022/01/16 07:30:24;;;;;;;111.35;36.00;;;3.80;99.90;;;;;;5069220;28;20047;-84
2022/01/16 07:32:50;;;;;;;108.72;36.72;;;4.30;99.90;;;;;;5110295;28;20039;-84
2022/01/16 07:35:15;;;;;;;114.28;37.15;;;3.90;99.90;;;;;;5090348;28;20549;-84
2022/01/16 07:37:41;;;;;;;128.75;36.97;;;3.90;99.90;;;;;;5054831;28;20115;-84
2022/01/16 07:40:10;;;;;;;111.38;37.17;;;3.90;99.90;;;;;;5091454;28;20091;-85
2022/01/16 07:42:36;;;;;;;103.55;35.85;;;3.90;99.90;;;;;;5110366;28;20503;-84
2022/01/16 07:45:02;;;;;;;116.85;38.63;;;4.90;99.90;;;;;;5110214;28;20043;-84
2022/01/16 07:47:28;;;;;;;119.45;38.13;;;6.00;99.90;;;;;;5074910;28;20031;-84
2022/01/16 07:49:55;;;;;;;111.75;38.20;;;4.00;99.90;;;;;;5108887;28;20035;-84
2022/01/16 07:52:21;;;;;;;113.82;38.63;;;4.00;99.90;;;;;;5058100;28;20031;-84
2022/01/16 07:54:47;;;;;;;111.60;37.85;;;;;;;;;;5077035;28;20100;-83
2022/01/16 07:57:13;;;;;;;107.55;37.72;;;4.10;99.90;;;;;;5064621;28;20039;-85
2022/01/16 07:59:39;;;;;;;124.13;40.50;;;4.10;99.90;;;;;;5110507;28;20031;-84
2022/01/16 08:02:06;;;;;;;106.68;36.45;;;4.10;99.90;;;;;;5076339;28;20104;-84
2022/01/16 08:04:31;;;;;;;119.05;39.28;;;5.60;99.90;;;;;;5091948;28;20043;-84
2022/01/16 08:06:57;;;;;;;101.80;37.90;;;5.40;99.90;;;;;;5071186;28;20036;-84
2022/01/16 08:09:23;;;;;;;108.43;37.67;;;4.20;99.90;;;;;;5088588;27;20066;-84
2022/01/16 08:11:49;;;;;;;116.30;38.90;;;4.60;99.90;;;;;;5068402;28;20073;-84
2022/01/16 08:14:15;;;;;;;84.30;35.67;;;4.20;99.90;;;;;;5104772;28;20082;-85
2022/01/16 08:16:41;;;;;;;103.15;38.95;;;4.30;99.90;;;;;;5072183;28;20070;-84
2022/01/16 08:19:07;;;;;;;104.85;37.83;;;4.40;99.90;;;;;;5087623;28;20504;-85
2022/01/16 08:21:33;;;;;;;95.95;37.03;;;5.30;99.90;;;;;;5070730;28;20395;-84
2022/01/16 08:24:00;;;;;;;90.40;36.10;;;4.30;99.90;;;;;;5107193;28;20036;-85
2022/01/16 08:26:25;;;;;;;100.10;36.97;;;4.60;99.90;;;;;;5090807;28;20050;-84
2022/01/16 08:28:51;;;;;;;96.43;37.58;;;4.40;99.90;;;;;;5089755;28;20496;-84
2022/01/16 08:31:17;;;;;;;102.43;36.60;;;4.50;99.90;;;;;;5090423;28;20031;-84
2022/01/16 08:33:42;;;;;;;98.43;37.17;;;4.50;99.90;;;;;;5089837;28;20155;-84
2022/01/16 08:36:08;;;;;;;99.60;35.67;;;4.60;99.90;;;;;;5054870;28;20128;-85
2022/01/16 08:38:34;;;;;;;89.95;35.53;;;5.90;99.90;;;;;;5069152;28;20197;-84
2022/01/16 08:41:01;;;;;;;90.63;36.17;;;4.60;99.90;;;;;;5077048;28;20047;-85
2022/01/16 08:43:29;;;;;;;82.95;34.88;;;4.70;99.90;;;;;;5067887;28;20523;-84
2022/01/16 08:45:55;;;;;;;86.80;36.90;;;4.70;99.90;;;;;;5068401;28;20050;-83
2022/01/16 08:48:21;;;;;;;81.60;35.30;;;4.80;99.90;;;;;;5068851;28;20100;-85
2022/01/16 08:50:46;;;;;;;79.15;34.30;;;4.80;99.90;;;;;;5091720;28;20088;-84
2022/01/16 08:53:13;;;;;;;87.03;36.05;;;6.30;99.90;;;;;;5067895;28;20035;-85
2022/01/16 08:55:38;;;;;;;75.80;33.47;;;6.20;99.90;;;;;;5092996;28;20107;-85
2022/01/16 08:58:04;;;;;;;80.15;35.03;;;5.10;99.90;;;;;;5090993;28;20563;-83
2022/01/16 09:00:32;;;;;;;85.20;34.28;;;5.10;99.90;;;;;;5071131;28;20042;-84
2022/01/16 09:02:58;;;;;;;80.22;33.45;;;4.90;99.90;;;;;;5072247;28;20043;-84
2022/01/16 09:05:25;;;;;;;78.85;34.63;;;6.30;99.90;;;;;;5088570;28;20143;-84
2022/01/16 09:07:51;;;;;;;79.13;34.40;;;4.90;99.90;;;;;;5107489;28;20032;-85
2022/01/16 09:10:17;;;;;;;71.55;31.80;;;6.60;99.90;;;;;;5088081;28;20034;-86
2022/01/16 09:12:42;;;;;;;70.82;32.85;;;5.00;99.90;;;;;;5087944;28;20040;-86
2022/01/16 09:15:10;;;;;;;64.82;31.27;;;5.00;99.90;;;;;;5089418;28;20092;-86
2022/01/16 09:17:36;;;;;;;70.68;32.05;;;5.00;99.90;;;;;;5091550;28;20035;-85
2022/01/16 09:20:04;;;;;;;63.78;31.33;;;6.60;99.90;;;;;;5084236;28;20036;-86
2022/01/16 09:22:29;;;;;;;67.30;32.50;;;5.10;99.90;;;;;;5090063;28;20035;-85
2022/01/16 09:24:55;;;;;;;63.83;31.50;;;5.20;99.90;;;;;;5090257;28;20446;-85
2022/01/16 09:27:21;;;;;;;64.85;31.20;;;6.70;99.90;;;;;;5074133;28;20032;-86
2022/01/16 09:29:47;;;;;;;64.90;31.88;;;6.50;99.90;;;;;;5074288;28;20118;-86
2022/01/16 09:32:13;;;;;;;63.53;29.80;;;5.20;99.90;;;;;;5109122;28;20118;-86
2022/01/16 09:34:40;;;;;;;59.28;30.08;;;6.90;99.90;;;;;;5089355;28;20039;-86
2022/01/16 09:37:09;;;;;;;62.08;31.02;;;5.30;99.90;;;;;;5068691;28;20393;-86
2022/01/16 09:39:36;;;;;;;65.13;31.70;;;5.40;99.90;;;;;;5091865;28;20172;-85
2022/01/16 09:42:03;;;;;;;59.22;29.67;;;5.60;99.90;;;;;;5087672;28;20123;-85
2022/01/16 09:44:30;;;;;;;59.75;31.02;;;5.40;99.90;;;;;;5088725;28;20193;-85
2022/01/16 09:46:57;;;;;;;54.90;28.85;;;5.50;99.90;;;;;;5090483;28;20400;-85
2022/01/16 09:49:23;;;;;;;52.60;29.17;;;5.50;99.90;;;;;;5074214;28;20036;-85
2022/01/16 09:51:51;;;;;;;55.95;29.05;;;6.20;99.90;;;;;;5103492;28;20044;-84
2022/01/16 09:54:19;;;;;;;56.35;29.10;;;5.50;99.90;;;;;;5104453;27;20449;-85
2022/01/16 09:56:45;;;;;;;51.65;27.92;;;5.60;99.90;;;;;;5105047;28;20042;-85
2022/01/16 09:59:10;;;;;;;48.70;27.77;;;5.60;99.90;;;;;;5088317;28;20040;-85
2022/01/16 10:01:37;;;;;;;52.15;25.83;;;6.60;99.90;;;;;;5106111;28;20054;-85
2022/01/16 10:04:03;;;;;;;48.65;25.67;;;6.40;99.90;;;;;;5072642;28;20079;-85
2022/01/16 10:06:29;;;;;;;51.90;27.02;;;5.60;99.90;;;;;;5067444;28;20082;-85
2022/01/16 10:08:55;;;;;;;47.92;26.27;;;6.80;99.90;;;;;;5091275;28;20028;-85
2022/01/16 10:11:35;;;;;;;44.10;25.10;;;4.70;99.90;;;;;;5088113;28;20096;-85
2022/01/16 10:14:23;;;;;;;49.03;25.38;;;5.70;99.90;;;;;;5089748;28;20142;-85
2022/01/16 10:16:49;;;;;;;44.22;23.95;;;7.10;99.90;;;;;;5105065;28;20040;-86
2022/01/16 10:19:33;;;;;;;45.53;25.35;;;6.80;99.90;;;;;;5089487;28;20031;-85
2022/01/16 10:22:12;;;;;;;46.78;25.77;;;5.80;99.90;;;;;;5066359;28;20036;-85
2022/01/16 10:24:40;;;;;;;48.78;25.30;;;6.60;99.90;;;;;;5085013;28;20187;-85
2022/01/16 10:27:09;;;;;;;43.95;24.88;;;5.90;99.90;;;;;;5101835;28;20044;-85
2022/01/16 10:29:43;;;;;;;44.53;24.33;;;5.90;99.90;;;;;;5105989;28;20392;-85
2022/01/16 10:32:22;;;;;;;46.33;23.92;;;6.90;99.90;;;;;;5106046;28;20152;-85
2022/01/16 10:34:51;;;;;;;41.97;23.13;;;6.00;99.90;;;;;;5104704;28;20039;-85
2022/01/16 10:37:30;;;;;;;47.90;23.95;;;7.50;99.90;;;;;;5090197;28;20114;-85
2022/01/16 10:40:05;;;;;;;44.97;24.60;;;6.10;99.90;;;;;;5103988;28;20493;-86
2022/01/16 10:42:33;;;;;;;40.75;23.20;;;6.10;99.90;;;;;;5103012;28;20067;-85
2022/01/16 10:45:00;;;;;;;44.97;22.60;;;6.20;99.90;;;;;;5105926;28;20040;-85
2022/01/16 10:47:37;;;;;;;44.22;23.75;;;6.20;99.90;;;;;;5107641;28;20340;-85
2022/01/16 10:50:12;;;;;;;45.53;22.92;;;6.20;99.90;;;;;;5089216;28;20126;-85
2022/01/16 10:53:08;;;;;;;40.38;22.05;;;6.30;99.90;;;;;;5104531;28;20043;-85
2022/01/16 10:55:49;;;;;;;41.30;21.10;;;6.30;99.90;;;;;;5093437;28;20040;-86
2022/01/16 10:58:20;;;;;;;37.63;21.77;;;6.40;99.90;;;;;;5105742;28;20559;-86
2022/01/16 11:00:53;;;;;;;39.85;21.23;;;6.40;99.90;;;;;;5089863;28;20035;-85
2022/01/16 11:03:20;;;;;;;37.10;20.30;;;7.50;99.90;;;;;;5073360;28;20047;-85
2022/01/16 11:05:47;;;;;;;41.45;20.30;;;6.40;99.90;;;;;;5107268;28;20035;-85
2022/01/16 11:08:15;;;;;;;39.25;20.02;;;6.50;99.90;;;;;;5089229;28;20046;-84
2022/01/16 11:10:44;;;;;;;33.17;20.15;;;7.20;99.90;;;;;;5087818;28;20039;-85
2022/01/16 11:13:12;;;;;;;39.70;19.75;;;6.90;99.90;;;;;;5104033;28;20373;-85
2022/01/16 11:15:41;;;;;;;36.35;19.52;;;7.70;99.90;;;;;;5090184;28;20047;-85
2022/01/16 11:18:09;;;;;;;36.40;19.52;;;7.90;99.90;;;;;;5107088;28;20408;-85
2022/01/16 11:20:37;;;;;;;33.78;19.05;;;6.50;99.90;;;;;;5107354;28;20453;-85
2022/01/16 11:23:27;;;;;;;34.40;18.60;;;7.60;99.90;;;;;;5105297;28;20067;-85
2022/01/16 11:26:04;;;;;;;33.03;18.08;;;7.90;99.90;;;;;;5088865;28;20114;-85
2022/01/16 11:28:30;;;;;;;32.20;18.10;;;7.50;99.90;;;;;;5089711;28;20545;-85
2022/01/16 11:30:58;;;;;;;37.85;18.35;;;7.50;99.90;;;;;;5106803;28;20055;-85
2022/01/16 11:33:27;;;;;;;33.58;17.25;;;7.80;99.90;;;;;;5107016;28;20381;-85
2022/01/16 11:35:56;;;;;;;37.70;18.13;;;7.80;99.90;;;;;;5104738;28;20043;-85
2022/01/16 11:38:28;;;;;;;30.17;16.85;;;6.60;99.90;;;;;;5106628;28;20066;-85
2022/01/16 11:40:53;;;;;;;32.55;17.67;;;6.60;99.90;;;;;;5088886;28;20082;-85
2022/01/16 11:43:36;;;;;;;33.83;17.02;;;6.60;99.90;;;;;;5087071;28;20040;-85
2022/01/16 11:46:18;;;;;;;28.88;16.02;;;7.20;99.90;;;;;;5105154;28;20104;-85
2022/01/16 11:48:59;;;;;;;27.45;15.43;;;7.70;99.90;;;;;;5102200;28;20518;-85
2022/01/16 11:51:40;;;;;;;30.95;16.23;;;7.20;99.90;;;;;;5103915;28;20161;-85
2022/01/16 11:54:12;;;;;;;30.25;15.82;;;7.50;99.90;;;;;;5105640;28;20055;-85
2022/01/16 11:56:38;;;;;;;26.58;15.10;;;6.60;99.90;;;;;;5104987;28;20110;-85
2022/01/16 11:59:10;;;;;;;31.52;15.18;;;7.50;99.90;;;;;;5106368;28;20142;-86
2022/01/16 12:01:54;;;;;;;27.58;14.35;;;7.80;99.90;;;;;;5088344;28;20118;-85
2022/01/16 12:04:29;;;;;;;28.77;13.88;;;6.70;99.90;;;;;;5089114;28;20043;-85
2022/01/16 12:07:13;;;;;;;31.02;14.52;;;6.70;99.90;;;;;;5089921;28;20039;-85
2022/01/16 12:12:13;;;;;;;24.58;13.30;;;6.70;99.90;;;;;;5100643;28;20440;-84
2022/01/16 12:14:51;;;;;;;27.88;13.48;;;6.70;99.90;;;;;;5102248;28;20058;-85
2022/01/16 12:17:29;;;;;;;23.30;12.40;;;7.50;99.90;;;;;;5105915;28;20396;-85
2022/01/16 12:19:56;;;;;;;28.52;12.35;;;6.80;99.90;;;;;;5088134;28;20042;-85
2022/01/16 12:22:43;;;;;;;26.17;12.20;;;6.80;99.90;;;;;;5069853;28;20036;-85
2022/01/16 12:25:20;;;;;;;25.88;11.57;;;6.80;99.90;;;;;;5104295;28;20453;-85
2022/01/16 12:27:52;;;;;;;21.58;10.27;;;7.90;99.90;;;;;;5110782;28;20039;-85
2022/01/16 12:30:41;;;;;;;27.58;10.65;;;6.80;99.90;;;;;;5091616;28;20583;-86
2022/01/16 12:33:16;;;;;;;20.50;9.93;;;6.80;99.90;;;;;;5110351;28;20048;-85
2022/01/16 12:35:42;;;;;;;23.50;9.93;;;6.80;99.90;;;;;;5105826;28;20039;-86
2022/01/16 12:38:29;;;;;;;22.25;9.48;;;8.00;99.90;;;;;;5105608;28;20100;-86
2022/01/16 12:41:16;;;;;;;18.80;8.65;;;6.80;99.90;;;;;;5089138;28;20040;-84
2022/01/16 12:44:04;;;;;;;28.25;9.25;;;6.80;99.90;;;;;;5110072;28;20047;-86
2022/01/16 12:46:37;;;;;;;20.63;8.60;;;6.80;99.90;;;;;;5110475;28;20040;-86
2022/01/16 12:49:10;;;;;;;20.17;8.07;;;6.80;99.90;;;;;;5109298;28;20095;-86
2022/01/16 12:51:38;;;;;;;19.38;8.02;;;6.90;99.90;;;;;;5093088;28;20042;-85
2022/01/16 12:54:11;;;;;;;20.27;8.02;;;6.80;99.90;;;;;;5091285;28;20504;-85
2022/01/16 12:56:45;;;;;;;16.25;7.18;;;6.90;99.90;;;;;;5109811;28;20090;-85
2022/01/16 12:59:11;;;;;;;15.38;7.03;;;6.90;99.90;;;;;;5108014;28;20368;-86
2022/01/16 13:01:42;;;;;;;21.45;8.35;;;7.00;99.90;;;;;;5092620;28;20130;-86
2022/01/16 13:04:17;;;;;;;17.10;6.70;;;8.30;99.90;;;;;;5092740;28;20122;-86
2022/01/16 13:06:43;;;;;;;17.98;6.82;;;6.90;99.90;;;;;;5108133;28;20074;-85
2022/01/16 13:09:10;;;;;;;17.58;6.93;;;6.90;99.90;;;;;;5092360;28;20433;-86
2022/01/16 13:11:42;;;;;;;15.65;6.78;;;6.90;99.90;;;;;;5092781;28;20032;-86
2022/01/16 13:14:11;;;;;;;18.17;6.95;;;6.80;99.90;;;;;;5089895;28;20054;-86
2022/01/16 13:16:43;;;;;;;17.60;6.97;;;7.70;99.90;;;;;;5108945;28;20047;-85
2022/01/16 13:19:15;;;;;;;19.77;7.40;;;6.80;99.90;;;;;;5109514;28;20507;-86
2022/01/16 13:22:05;;;;;;;19.23;7.00;;;6.90;99.90;;;;;;5090634;28;20047;-86
2022/01/16 13:24:35;;;;;;;15.32;6.43;;;6.90;99.90;;;;;;5092479;28;20047;-86